Accueil
METAR-TAF:

METAR-TAF

Aéroports :

Aéroport international de Portland

Portland, Maine, États-Unis

latitude: 43-38-32N, longitude: 070-18-16W, altitude: 22 m

Observation

Le bulletin a été fait il y a 18 minutes, à 17:51 UTC
Vent calme
Température -9°C
Humidité 37%
Pression 1028 hPa
Visibilité: 16.1 km
Ciel clair

METAR: KPWM 221751Z 00000KT 10SM CLR M09/M21 A3037 RMK AO2 SLP284 T10891206 11083 21172 58040

Heure: 13:09 (18:09 UTC)

Prévision

Le bulletin a été fait il y a 49 minutes, à 17:20 UTC
Prévision valable du 22 à 18 UTC au 23 à 18 UTC
Vent 4 kt de direction variable
Visibilité: 10 km
Nuages épars à une hauteur de 25000 ft
A partir de 23 à 1400 UTC
Vent 7 kt de ouest/sud-ouest
Visibilité: 10 km
Nuages fragmentés à une hauteur de 25000 ft

TAF: KPWM 221720Z 2218/2318 VRB04KT P6SM SCT250 FM231400 25007KT P6SM BKN250

Observations et prévisions météorologiques de plus de 4000 aéroports (messages METAR et TAF).

Les stations disponibles sont représentées par des disques jaunes et rouges sur la carte.

Passer la souris dessus pour voir le nom de la station.

Cliquer dessus pour voir les observations et prévisions météorologiques.

Pour changer de carte: cliquez sur les boutons verts avec une croix noire pour zoomer, sur le bouton vert avec un tiret pour effectuer un zoom arrière, ou sur les flèches vertes pour les cartes adjacentes.


METAR-TAF: